Time;durP1;ratioP1;P1;durP2;ratioP2;P2;SDS_P1;SDS_P2;PMS_P1;PMS_P2;Temp;Humidity;BMP_temperature;BMP_pressure;BME280_temperature;BME280_humidity;BME280_pressure;Samples;Min_cycle;Max_cycle;Signal;HPM_P1;HPM_P2
2023/10/31 00:03:02;;;;;;;10.82;3.97;;;;;;;12.88;85.00;101164.81;10542587;28;20109;-58
2023/10/31 00:08:03;;;;;;;12.15;3.90;;;;;;;12.96;84.82;101154.19;10541622;28;20044;-59
2023/10/31 00:13:04;;;;;;;16.52;4.18;;;;;;;13.06;84.90;101160.19;10541762;28;20574;-58
2023/10/31 00:18:05;;;;;;;9.18;4.07;;;;;;;12.54;85.00;101107.09;10540895;28;20051;-58
2023/10/31 00:23:06;;;;;;;7.30;4.65;;;;;;;12.30;85.41;101151.28;10541498;28;20064;-59
2023/10/31 00:28:07;;;;;;;20.95;4.57;;;;;;;11.64;85.95;101151.88;10542204;28;20048;-58
2023/10/31 00:33:08;;;;;;;9.75;3.83;;;;;;;11.25;87.46;101156.69;10541858;28;20504;-58
2023/10/31 00:38:08;;;;;;;8.18;3.67;;;;;;;10.96;88.16;101157.75;10539785;28;20101;-59
2023/10/31 00:43:09;;;;;;;9.02;4.65;;;;;;;10.78;88.88;101156.91;10540463;28;20043;-58
2023/10/31 00:48:10;;;;;;;10.98;5.30;;;;;;;10.27;89.60;101098.84;10540602;28;20055;-58
2023/10/31 00:53:10;;;;;;;7.82;4.10;;;;;;;9.83;90.21;101052.63;10539573;28;20047;-58
2023/10/31 00:58:11;;;;;;;8.13;4.15;;;;;;;10.25;90.46;101163.69;10539970;28;20055;-58
2023/10/31 01:03:12;;;;;;;17.17;5.22;;;;;;;9.90;90.62;101109.47;10539802;28;20042;-58
2023/10/31 01:08:13;;;;;;;7.72;3.95;;;;;;;10.04;90.77;101138.19;10539503;28;20453;-59
2023/10/31 01:13:13;;;;;;;9.65;4.20;;;;;;;10.13;90.86;101133.81;10539153;28;20134;-58
2023/10/31 01:18:14;;;;;;;11.60;4.30;;;;;;;10.20;91.10;101134.94;10539119;28;20043;-58
2023/10/31 01:23:15;;;;;;;14.15;4.78;;;;;;;9.78;91.10;101139.78;10539357;28;20036;-58
2023/10/31 01:28:16;;;;;;;12.60;5.22;;;;;;;9.61;91.69;101146.69;10538827;28;20104;-58
2023/10/31 01:33:16;;;;;;;9.27;5.13;;;;;;;9.33;91.91;101129.81;10538789;28;20096;-61
2023/10/31 01:38:17;;;;;;;13.40;5.50;;;;;;;8.91;92.07;101092.97;10538403;28;20060;-58
2023/10/31 01:43:30;;;;;;;11.07;5.50;;;;;;;9.23;94.02;101156.31;10539309;28;20040;-58
2023/10/31 01:48:33;;;;;;;14.77;7.07;;;;;;;9.21;92.84;101147.66;10518726;28;20566;-58
2023/10/31 01:53:35;;;;;;;18.40;6.45;;;;;;;8.78;92.93;101087.97;10496567;28;20044;-58
2023/10/31 01:58:37;;;;;;;19.25;6.70;;;;;;;9.37;92.68;101155.09;10496398;28;20044;-59
2023/10/31 02:03:38;;;;;;;14.70;6.28;;;;;;;9.48;93.33;101152.28;10496811;28;20048;-58
2023/10/31 02:08:39;;;;;;;13.10;6.60;;;;;;;9.03;92.72;101155.47;10495569;28;20044;-59
2023/10/31 02:13:40;;;;;;;12.10;6.90;;;;;;;8.76;93.50;101150.00;10494673;28;20032;-58
2023/10/31 02:18:42;;;;;;;17.98;8.90;;;;;;;8.61;94.05;101145.06;10494769;28;20048;-58
2023/10/31 02:23:42;;;;;;;20.42;8.05;;;;;;;8.58;94.61;101118.88;10495751;28;20090;-59
2023/10/31 02:28:44;;;;;;;18.80;8.23;;;;;;;8.61;94.29;101126.53;10495617;28;20054;-58
2023/10/31 02:33:45;;;;;;;35.13;19.42;;;;;;;8.49;93.93;101151.47;10495602;28;20044;-59
2023/10/31 02:38:46;;;;;;;41.70;21.00;;;;;;;8.38;94.30;101159.50;10495582;28;20063;-58
2023/10/31 02:43:47;;;;;;;32.88;17.35;;;;;;;7.98;94.93;101094.94;10495901;28;20132;-61
2023/10/31 02:48:48;;;;;;;33.92;14.30;;;;;;;8.41;95.26;101160.09;10495428;28;20386;-58
2023/10/31 02:53:48;;;;;;;30.55;13.77;;;;;;;8.44;95.28;101167.75;10495808;28;20146;-58
2023/10/31 02:58:49;;;;;;;34.47;17.42;;;;;;;8.23;95.24;101154.56;10495052;28;20105;-59
2023/10/31 03:03:50;;;;;;;40.78;18.33;;;;;;;8.10;95.25;101135.41;10495511;28;20523;-60
2023/10/31 03:08:51;;;;;;;34.42;15.93;;;;;;;8.13;95.89;101129.84;10493922;28;20037;-59
2023/10/31 03:13:56;;;;;;;43.78;16.13;;;;;;;7.96;95.89;101098.72;10494943;28;20045;-59
2023/10/31 03:18:57;;;;;;;74.65;17.10;;;;;;;8.22;95.50;101126.38;10494759;28;20049;-59
2023/10/31 03:23:57;;;;;;;40.33;14.10;;;;;;;7.74;95.03;101084.69;10498972;28;20123;-58
2023/10/31 03:28:58;;;;;;;50.60;13.23;;;;;;;8.12;94.60;101162.56;10500457;28;20049;-61
2023/10/31 03:33:59;;;;;;;56.42;14.52;;;;;;;7.95;94.75;101158.72;10501722;28;20143;-61
2023/10/31 03:39:00;;;;;;;50.35;13.02;;;;;;;7.85;95.03;101151.72;10502386;28;20044;-61
2023/10/31 03:44:01;;;;;;;38.00;13.15;;;;;;;7.52;94.70;101098.06;10499937;28;20044;-61
2023/10/31 03:49:01;;;;;;;39.42;13.70;;;;;;;7.52;94.69;101093.59;10514095;28;20487;-63
2023/10/31 03:54:02;;;;;;;52.15;20.88;;;;;;;7.91;94.08;101169.72;10533257;28;20048;-62
2023/10/31 03:59:03;;;;;;;75.35;19.30;;;;;;;8.08;94.80;101174.41;10533036;28;20032;-62
2023/10/31 04:04:04;;;;;;;63.88;20.60;;;;;;;8.32;94.42;101174.09;10528795;28;20048;-62
2023/10/31 04:09:05;;;;;;;58.63;25.45;;;;;;;8.17;93.97;101131.25;10524171;28;20044;-62
2023/10/31 04:14:05;;;;;;;60.58;36.72;;;;;;;8.69;94.24;101192.91;10527638;28;20035;-61
2023/10/31 04:19:07;;;;;;;253.02;131.13;;;;;;;9.08;93.72;101214.22;10520595;28;20036;-61
2023/10/31 04:24:07;;;;;;;119.85;55.47;;;;;;;9.05;92.82;101205.69;10520125;28;20051;-61
2023/10/31 04:29:08;;;;;;;88.78;43.83;;;;;;;8.76;92.63;101156.13;10523334;28;20159;-61
2023/10/31 04:34:09;;;;;;;23.20;11.45;;;;;;;9.12;92.28;101218.28;10520302;28;20059;-62
2023/10/31 04:39:10;;;;;;;24.73;8.40;;;;;;;8.83;92.20;101164.38;10527874;28;20441;-60
2023/10/31 04:44:10;;;;;;;12.10;7.00;;;;;;;8.97;92.25;101187.00;10520077;28;20047;-61
2023/10/31 04:49:11;;;;;;;11.82;6.22;;;;;;;9.30;91.98;101228.19;10537378;28;20044;-61
2023/10/31 04:54:12;;;;;;;13.27;6.72;;;;;;;9.37;92.19;101222.22;10538577;28;20063;-61
2023/10/31 04:59:12;;;;;;;12.68;6.50;;;;;;;9.66;91.98;101209.91;10532854;28;20044;-61
2023/10/31 05:04:13;;;;;;;15.63;6.57;;;;;;;9.61;91.60;101152.00;10540310;28;20040;-61
2023/10/31 05:09:14;;;;;;;15.77;6.88;;;;;;;10.24;91.55;101210.66;10527392;28;20085;-61
2023/10/31 05:14:15;;;;;;;21.48;7.40;;;;;;;10.46;91.33;101214.78;10521816;28;20476;-62
2023/10/31 05:19:16;;;;;;;17.92;8.27;;;;;;;10.25;91.57;101145.94;10525523;28;20032;-62
2023/10/31 05:24:51;;;;;;;16.88;7.97;;;;;;;11.00;94.04;101206.13;10520187;28;20487;-62
2023/10/31 05:29:51;;;;;;;27.58;9.27;;;;;;;11.08;91.61;101188.44;10538564;28;20044;-61
2023/10/31 05:34:52;;;;;;;15.85;8.45;;;;;;;11.20;92.33;101191.72;10539122;28;20056;-62
2023/10/31 05:39:53;;;;;;;14.55;8.77;;;;;;;11.32;92.79;101185.19;10538287;28;20105;-61
2023/10/31 05:44:55;;;;;;;17.30;8.63;;;;;;;11.54;94.14;101207.00;10537904;28;20040;-62
2023/10/31 05:49:55;;;;;;;20.88;8.70;;;;;;;11.28;95.15;101140.44;10538311;28;20040;-61
2023/10/31 05:54:56;;;;;;;16.45;7.85;;;;;;;11.77;95.83;101210.00;10537815;28;20411;-61
2023/10/31 05:59:58;;;;;;;23.70;9.57;;;;;;;11.80;96.83;101197.22;10537619;28;20144;-61
2023/10/31 06:04:59;;;;;;;9.82;7.10;;;;;;;11.76;97.83;101189.72;10538224;28;20440;-62
2023/10/31 06:10:00;;;;;;;11.90;6.30;;;;;;;11.77;98.55;101202.84;10537652;28;20093;-61
2023/10/31 06:15:01;;;;;;;8.00;5.40;;;;;;;11.85;98.75;101192.31;10537261;28;20035;-61
2023/10/31 06:20:02;;;;;;;8.55;5.35;;;;;;;11.67;99.13;101151.56;10536001;28;20143;-61
2023/10/31 06:25:03;;;;;;;10.40;6.63;;;;;;;12.08;98.90;101186.44;10537545;28;20127;-61
2023/10/31 06:30:04;;;;;;;19.30;10.05;;;;;;;12.26;98.24;101200.53;10537665;28;20071;-62
2023/10/31 06:35:06;;;;;;;23.95;12.68;;;;;;;12.21;98.31;101168.22;10537272;28;20526;-61
2023/10/31 06:40:07;;;;;;;14.68;7.55;;;;;;;12.48;98.14;101193.00;10536804;28;20131;-61
2023/10/31 06:45:08;;;;;;;13.55;4.63;;;;;;;12.26;97.66;101147.25;10537214;28;20503;-60
2023/10/31 06:50:09;;;;;;;11.98;6.88;;;;;;;12.82;97.59;101198.31;10536453;28;20042;-63
2023/10/31 06:55:10;;;;;;;10.07;4.82;;;;;;;13.05;96.36;101200.38;10537550;28;20046;-60
2023/10/31 07:00:12;;;;;;;11.27;5.68;;;;;;;12.99;95.55;101159.19;10543024;28;20036;-61
2023/10/31 07:05:12;;;;;;;16.05;4.78;;;;;;;13.44;94.55;101192.63;10544679;28;20044;-61
2023/10/31 07:10:13;;;;;;;12.75;5.70;;;;;;;13.56;94.83;101185.97;10544841;28;20051;-61
2023/10/31 07:15:14;;;;;;;25.55;11.82;;;;;;;13.70;94.31;101187.13;10543259;28;20055;-61
2023/10/31 07:20:15;;;;;;;11.40;6.32;;;;;;;14.25;93.27;101183.69;10543904;28;20063;-61
2023/10/31 07:25:15;;;;;;;12.60;6.90;;;;;;;14.54;91.49;101161.72;10544963;28;20044;-61
2023/10/31 07:30:16;;;;;;;13.52;7.13;;;;;;;14.88;90.26;101168.56;10543403;28;20047;-61
2023/10/31 07:35:17;;;;;;;8.82;6.40;;;;;;;15.05;88.96;101138.03;10544001;28;20062;-61
2023/10/31 07:40:18;;;;;;;13.93;7.13;;;;;;;15.40;87.02;101118.84;10543795;28;20101;-61
2023/10/31 07:45:18;;;;;;;12.98;6.75;;;;;;;16.02;85.81;101163.34;10543536;28;20399;-61
2023/10/31 07:50:19;;;;;;;18.58;9.13;;;;;;;16.24;84.19;101153.53;10543346;28;20402;-61
2023/10/31 07:55:20;;;;;;;13.32;8.02;;;;;;;16.49;83.58;101136.16;10542897;28;20043;-63
2023/10/31 08:00:21;;;;;;;20.25;11.23;;;;;;;16.78;82.04;101121.00;10543087;28;20044;-61
2023/10/31 08:05:22;;;;;;;17.85;11.32;;;;;;;17.12;80.64;101125.72;10542791;28;20036;-61
2023/10/31 08:10:23;;;;;;;22.55;12.20;;;;;;;17.21;79.77;101121.88;10542059;28;20550;-61
2023/10/31 08:15:23;;;;;;;18.23;8.82;;;;;;;16.70;78.97;101003.91;10541640;28;20047;-62
2023/10/31 08:20:24;;;;;;;19.58;8.43;;;;;;;17.79;77.54;101109.13;10542019;28;20122;-61
2023/10/31 08:25:25;;;;;;;12.73;7.00;;;;;;;18.14;76.82;101092.19;10541873;28;20038;-61
2023/10/31 08:30:26;;;;;;;10.88;6.05;;;;;;;18.38;75.70;101072.00;10540899;28;20051;-62
2023/10/31 08:35:26;;;;;;;12.27;6.00;;;;;;;18.78;74.52;101064.88;10541303;28;20064;-62
2023/10/31 08:40:27;;;;;;;17.63;7.47;;;;;;;18.90;73.08;101052.47;10541789;28;20043;-61
2023/10/31 08:45:28;;;;;;;15.25;6.40;;;;;;;19.20;72.13;101059.31;10538880;28;20404;-62
2023/10/31 08:50:29;;;;;;;12.02;5.82;;;;;;;19.29;71.21;101023.06;10540639;28;20384;-62
2023/10/31 08:55:29;;;;;;;12.95;7.57;;;;;;;19.44;70.55;101039.00;10530143;28;20185;-62
2023/10/31 09:00:30;;;;;;;70.22;34.90;;;;;;;19.53;69.66;101030.50;10526250;28;20044;-61
2023/10/31 09:05:31;;;;;;;24.08;11.82;;;;;;;19.77;68.61;101022.78;10522387;28;20036;-62
2023/10/31 09:10:33;;;;;;;18.05;8.43;;;;;;;20.02;67.54;101006.75;10518545;28;20489;-62
2023/10/31 09:15:34;;;;;;;12.25;6.68;;;;;;;19.84;66.82;100948.94;10517484;28;20515;-62
2023/10/31 09:20:35;;;;;;;16.42;9.07;;;;;;;20.32;66.45;100988.13;10516538;28;20043;-63
2023/10/31 09:25:35;;;;;;;13.90;7.70;;;;;;;20.45;65.88;100974.53;10522738;28;20097;-62
2023/10/31 09:30:36;;;;;;;58.33;30.50;;;;;;;20.46;65.11;100951.06;10517538;28;20047;-62
2023/10/31 09:35:37;;;;;;;20.98;9.93;;;;;;;20.77;64.49;100965.63;10522925;28;20052;-63
2023/10/31 09:40:39;;;;;;;22.77;10.13;;;;;;;21.12;63.06;100963.22;10520936;28;20033;-62
2023/10/31 09:45:39;;;;;;;10.55;4.60;;;;;;;21.40;62.09;100950.09;10517121;28;20036;-62
2023/10/31 09:50:41;;;;;;;15.68;4.22;;;;;;;21.67;61.55;100947.06;10515531;28;20094;-62
2023/10/31 09:55:43;;;;;;;8.77;3.00;;;;;;;21.84;60.63;100948.13;10516833;28;20044;-62
2023/10/31 10:00:43;;;;;;;8.23;3.60;;;;;;;22.09;60.06;100934.44;10515806;28;20500;-63
2023/10/31 10:05:45;;;;;;;9.07;4.45;;;;;;;22.08;59.46;100926.56;10516715;28;20028;-63
2023/10/31 10:10:46;;;;;;;10.43;4.05;;;;;;;22.28;58.33;100927.13;10518441;28;20097;-62
2023/10/31 10:15:49;;;;;;;10.27;2.65;;;;;;;22.43;56.16;100923.97;10534941;28;20071;-62
2023/10/31 10:21:02;;;;;;;9.98;3.80;;;;;;;22.65;53.73;100937.81;10537966;28;20036;-62
2023/10/31 10:26:03;;;;;;;7.80;2.72;;;;;;;22.28;53.75;100856.75;10537100;28;20450;-62
2023/10/31 10:31:06;;;;;;;5.68;2.80;;;;;;;22.92;52.90;100932.75;10539293;28;20051;-62
2023/10/31 10:36:10;;;;;;;8.25;2.65;;;;;;;23.03;50.31;100923.00;10552009;28;20064;-62
2023/10/31 10:41:15;;;;;;;11.98;4.53;;;;;;;22.96;49.73;100912.28;10551456;28;20036;-62
2023/10/31 10:46:19;;;;;;;8.63;2.60;;;;;;;23.06;48.44;100925.22;10551912;28;20492;-62
2023/10/31 10:51:28;;;;;;;6.82;2.20;;;;;;;23.13;47.82;100911.59;10551768;28;20039;-61
2023/10/31 10:56:41;;;;;;;5.95;2.30;;;;;;;23.21;46.06;100906.63;10550646;28;20036;-61
2023/10/31 11:01:46;;;;;;;6.47;2.05;;;;;;;23.28;45.28;100924.66;10551069;28;20046;-61
2023/10/31 11:06:48;;;;;;;13.57;2.65;;;;;;;23.19;45.44;100906.03;10551238;28;20040;-60
2023/10/31 11:11:50;;;;;;;16.67;5.22;;;;;;;23.26;45.18;100902.38;10549249;28;20044;-60
2023/10/31 11:16:59;;;;;;;12.45;2.85;;;;;;;22.83;43.95;100852.09;10550096;28;20043;-60
2023/10/31 11:22:06;;;;;;;16.10;2.30;;;;;;;22.68;42.89;100856.09;10549949;28;20115;-60
2023/10/31 11:27:07;;;;;;;7.72;2.15;;;;;;;22.97;44.76;100905.81;10549685;28;20067;-60
2023/10/31 11:32:09;;;;;;;5.43;1.98;;;;;;;22.70;44.36;100881.03;10549558;28;20040;-60
2023/10/31 11:37:34;;;;;;;9.30;2.25;;;;;;;22.90;44.30;100904.25;10550857;28;20060;-60
2023/10/31 11:42:36;;;;;;;17.67;6.40;;;;;;;22.59;46.92;100900.00;10549522;28;20052;-60
2023/10/31 11:47:50;;;;;;;10.65;2.47;;;;;;;22.45;47.30;100891.28;10542980;28;20098;-61
2023/10/31 11:53:04;;;;;;;21.50;8.93;;;;;;;22.36;47.95;100890.78;10542654;28;20086;-61
2023/10/31 11:58:22;;;;;;;14.30;6.05;;;;;;;22.20;48.32;100886.06;10543718;28;20032;-61
2023/10/31 12:03:22;;;;;;;16.65;8.77;;;;;;;22.16;49.26;100890.22;10542869;28;20043;-61
2023/10/31 12:08:30;;;;;;;21.00;7.53;;;;;;;21.98;49.38;100889.22;10539148;28;20032;-63
2023/10/31 12:13:31;;;;;;;12.60;6.05;;;;;;;21.78;50.01;100888.72;10537240;28;20047;-62
2023/10/31 12:18:35;;;;;;;12.65;7.32;;;;;;;21.60;50.64;100893.09;10539577;28;20495;-62
2023/10/31 12:23:36;;;;;;;23.35;11.52;;;;;;;21.33;51.78;100878.19;10541929;28;20032;-62
2023/10/31 12:28:38;;;;;;;29.10;13.27;;;;;;;21.34;52.35;100880.69;10538366;28;20044;-63
2023/10/31 12:33:38;;;;;;;33.30;16.15;;;;;;;21.22;52.70;100887.06;10536159;28;20040;-64
2023/10/31 12:38:39;;;;;;;33.65;14.23;;;;;;;20.97;53.67;100883.38;10540658;28;20509;-63
2023/10/31 12:43:40;;;;;;;58.63;31.20;;;;;;;20.74;54.29;100886.72;10540627;28;20044;-63
2023/10/31 12:48:41;;;;;;;27.77;14.10;;;;;;;20.54;55.03;100882.53;10541047;28;20564;-63
2023/10/31 12:53:42;;;;;;;64.43;30.40;;;;;;;20.18;56.24;100857.06;10506040;28;20109;-63
2023/10/31 12:58:43;;;;;;;23.50;11.57;;;;;;;19.83;57.24;100828.69;10492016;28;20051;-63
2023/10/31 13:03:50;;;;;;;39.55;8.15;;;;;;;19.99;59.59;100886.66;10493485;28;20043;-62
2023/10/31 13:08:51;;;;;;;10.38;4.05;;;;;;;19.48;60.07;100830.91;10499128;28;20043;-61
2023/10/31 13:13:53;;;;;;;36.70;5.57;;;;;;;19.43;61.48;100856.84;10497512;28;20040;-61
2023/10/31 13:18:54;;;;;;;26.52;6.00;;;;;;;19.27;63.10;100880.53;10497354;28;20044;-62
2023/10/31 13:23:55;;;;;;;81.18;12.63;;;;;;;19.06;64.31;100888.88;10497110;28;20042;-62
2023/10/31 13:28:55;;;;;;;36.85;14.73;;;;;;;18.17;65.68;100782.53;10496618;28;20389;-61
2023/10/31 13:33:56;;;;;;;33.63;12.32;;;;;;;18.61;67.10;100897.59;10496830;28;20056;-62
2023/10/31 13:38:57;;;;;;;36.15;11.52;;;;;;;18.34;68.66;100904.00;10496653;28;20098;-61
2023/10/31 13:43:58;;;;;;;13.98;5.25;;;;;;;18.13;69.96;100903.13;10497201;28;20127;-61
2023/10/31 13:48:59;;;;;;;38.17;6.95;;;;;;;17.85;71.10;100884.44;10526261;28;20040;-62
2023/10/31 13:54:00;;;;;;;41.00;19.00;;;;;;;17.84;71.95;100890.03;10538075;28;20556;-62
2023/10/31 13:59:00;;;;;;;61.03;28.40;;;;;;;17.61;72.41;100876.91;10538482;28;20134;-62
2023/10/31 14:04:01;;;;;;;123.07;50.50;;;;;;;17.29;73.39;100873.84;10537542;28;20046;-62
2023/10/31 14:09:04;;;;;;;149.88;66.78;;;;;;;17.01;74.07;100900.75;10537851;28;20089;-62
2023/10/31 14:14:13;;;;;;;38.83;20.48;;;;;;;16.81;75.90;100908.66;10538587;28;20069;-62
2023/10/31 14:19:16;;;;;;;43.70;20.60;;;;;;;16.63;76.21;100884.97;10537800;28;20067;-62
2023/10/31 14:24:17;;;;;;;86.75;36.22;;;;;;;16.35;76.78;100898.34;10537824;28;20028;-62
2023/10/31 14:29:18;;;;;;;54.85;23.45;;;;;;;16.08;77.87;100906.13;10536913;28;20514;-62
2023/10/31 14:34:18;;;;;;;48.58;21.17;;;;;;;15.81;79.05;100909.53;10537146;28;20062;-62
2023/10/31 14:39:19;;;;;;;510.02;362.90;;;;;;;15.77;79.57;100906.41;10537827;28;20043;-61
2023/10/31 14:44:21;;;;;;;365.90;230.20;;;;;;;15.59;79.95;100914.81;10537887;28;20094;-61
2023/10/31 14:49:22;;;;;;;467.83;298.90;;;;;;;15.48;80.72;100916.13;10536621;28;20043;-61
2023/10/31 14:54:22;;;;;;;420.73;272.25;;;;;;;15.18;81.71;100919.81;10537345;28;20043;-62
2023/10/31 14:59:23;;;;;;;431.88;276.00;;;;;;;14.91;82.69;100903.38;10537482;28;20152;-61
2023/10/31 15:04:24;;;;;;;294.35;181.88;;;;;;;14.37;83.66;100855.38;10536410;28;20036;-62
2023/10/31 15:09:24;;;;;;;247.25;143.15;;;;;;;14.52;84.56;100928.47;10536879;28;20040;-61
2023/10/31 15:14:25;;;;;;;150.68;87.35;;;;;;;14.39;84.86;100934.38;10536856;28;20130;-62
2023/10/31 15:19:26;;;;;;;122.80;62.20;;;;;;;14.14;85.49;100903.50;10535248;28;20036;-63
2023/10/31 15:24:30;;;;;;;102.38;50.90;;;;;;;14.30;85.77;100929.28;10540604;28;20538;-61
2023/10/31 15:29:31;;;;;;;124.80;49.40;;;;;;;14.00;85.51;100922.94;10543385;28;20040;-60
2023/10/31 15:34:32;;;;;;;459.70;310.17;;;;;;;13.92;86.22;100940.69;10540193;28;20067;-61
2023/10/31 15:39:33;;;;;;;438.13;283.77;;;;;;;13.48;87.20;100881.66;10541048;28;20185;-62
2023/10/31 15:44:38;;;;;;;471.70;344.10;;;;;;;13.60;88.15;100933.66;10541572;28;20126;-62
2023/10/31 15:49:39;;;;;;;334.77;214.52;;;;;;;13.51;87.78;100934.69;10543645;28;20047;-62
2023/10/31 15:54:39;;;;;;;295.80;188.77;;;;;;;13.30;88.24;100934.44;10541350;28;20028;-62
2023/10/31 15:59:40;;;;;;;249.82;144.55;;;;;;;13.17;88.03;100926.94;10542293;28;20542;-61
2023/10/31 16:04:41;;;;;;;111.85;66.43;;;;;;;12.51;87.91;100840.91;10542770;28;20505;-62
2023/10/31 16:09:42;;;;;;;102.60;56.72;;;;;;;12.61;88.36;100884.19;10541826;28;20052;-63
2023/10/31 16:14:43;;;;;;;71.82;41.80;;;;;;;12.74;88.27;100926.34;10540325;28;20037;-62
2023/10/31 16:19:44;;;;;;;60.85;30.73;;;;;;;12.29;87.76;100871.72;10540737;28;20499;-62
2023/10/31 16:24:47;;;;;;;71.45;29.58;;;;;;;12.49;87.91;100941.50;10539333;28;20024;-63
2023/10/31 16:29:47;;;;;;;85.70;35.58;;;;;;;12.36;88.39;100914.53;10541285;28;20181;-60
2023/10/31 16:34:51;;;;;;;121.97;40.55;;;;;;;12.40;88.48;100918.53;10541855;28;20485;-61
2023/10/31 16:39:52;;;;;;;130.77;39.17;;;;;;;12.01;88.54;100881.84;10540051;28;20641;-62
2023/10/31 16:44:53;;;;;;;181.90;54.95;;;;;;;12.05;88.40;100913.31;10540487;28;20126;-61
2023/10/31 16:49:53;;;;;;;190.90;54.92;;;;;;;12.04;89.09;100916.16;10539131;28;20139;-64
2023/10/31 16:54:55;;;;;;;108.72;39.60;;;;;;;11.76;89.97;100905.75;10535591;28;20039;-62
2023/10/31 16:59:56;;;;;;;122.80;47.33;;;;;;;11.18;89.50;100837.34;10539796;28;20123;-62
2023/10/31 17:04:57;;;;;;;166.88;72.70;;;;;;;11.54;89.78;100907.13;10540326;28;20501;-62
2023/10/31 17:09:58;;;;;;;179.77;89.72;;;;;;;11.24;90.25;100857.97;10539604;28;20088;-62
2023/10/31 17:14:59;;;;;;;226.95;119.93;;;;;;;11.53;90.46;100920.63;10537158;28;20039;-62
2023/10/31 17:20:00;;;;;;;208.15;96.32;;;;;;;11.56;90.38;100930.94;10537046;28;20409;-62
2023/10/31 17:25:02;;;;;;;173.05;88.35;;;;;;;10.95;90.26;100864.50;10555110;28;20040;-62
2023/10/31 17:30:06;;;;;;;179.32;85.47;;;;;;;11.07;90.65;100946.63;10539253;28;20040;-63
2023/10/31 17:35:07;;;;;;;;;;;;;;;11.15;91.22;100936.03;10540334;28;20110;-61
2023/10/31 17:40:10;;;;;;;216.57;87.28;;;;;;;10.67;89.98;100902.84;10538301;28;19924;-62
2023/10/31 17:45:11;;;;;;;233.18;96.28;;;;;;;10.85;90.37;100938.19;10538039;28;20062;-63
2023/10/31 17:50:12;;;;;;;229.88;95.60;;;;;;;10.77;90.65;100930.16;10538207;28;20101;-63
2023/10/31 17:55:18;;;;;;;234.23;98.13;;;;;;;10.55;90.79;100917.34;10537121;28;20044;-62
2023/10/31 18:00:19;;;;;;;205.75;98.53;;;;;;;10.41;91.16;100914.28;10538377;28;20074;-62
2023/10/31 18:05:20;;;;;;;211.90;96.85;;;;;;;10.42;92.66;100915.94;10538264;28;20068;-62
2023/10/31 18:10:21;;;;;;;229.65;101.22;;;;;;;10.31;92.54;100889.59;10536912;28;20093;-61
2023/10/31 18:15:22;;;;;;;215.00;93.18;;;;;;;10.20;92.38;100897.75;10537189;28;20043;-62
2023/10/31 18:20:24;;;;;;;193.75;79.53;;;;;;;10.04;91.97;100888.66;10537613;28;20081;-61
2023/10/31 18:25:25;;;;;;;159.85;59.90;;;;;;;9.69;91.88;100856.78;10537726;28;20051;-62
2023/10/31 18:30:26;;;;;;;164.38;46.67;;;;;;;10.05;92.18;100902.75;10536869;28;20036;-62
2023/10/31 18:35:29;;;;;;;97.40;37.67;;;;;;;10.11;92.28;100912.81;10537558;28;20199;-62
2023/10/31 18:40:32;;;;;;;86.78;33.88;;;;;;;9.95;92.63;100870.97;10535354;28;20051;-62
2023/10/31 18:45:33;;;;;;;95.10;36.60;;;;;;;10.10;92.92;100900.50;10536531;28;20055;-62
2023/10/31 18:50:34;;;;;;;83.30;33.78;;;;;;;9.90;92.82;100893.66;10536647;28;20137;-62
2023/10/31 18:55:39;;;;;;;87.68;37.90;;;;;;;9.91;94.17;100887.38;10543381;28;20043;-62
2023/10/31 19:00:40;;;;;;;85.82;37.20;;;;;;;9.70;93.35;100891.13;10545366;28;20048;-62
2023/10/31 19:05:41;;;;;;;89.72;37.17;;;;;;;9.69;93.58;100876.22;10545794;28;20044;-62
2023/10/31 19:10:47;;;;;;;86.22;34.45;;;;;;;9.56;93.92;100860.63;10543799;28;20044;-62
2023/10/31 19:15:48;;;;;;;84.78;35.33;;;;;;;9.54;93.68;100870.56;10543090;28;20048;-62
2023/10/31 19:20:48;;;;;;;90.97;33.35;;;;;;;9.50;93.47;100861.22;10544848;28;20050;-63
2023/10/31 19:25:50;;;;;;;87.43;37.72;;;;;;;9.08;92.81;100802.56;10544024;28;20043;-63
2023/10/31 19:30:51;;;;;;;97.75;40.10;;;;;;;9.37;93.15;100861.56;10544304;28;20083;-62
2023/10/31 19:35:52;;;;;;;118.38;45.38;;;;;;;9.36;92.81;100867.00;10543673;28;20091;-63
2023/10/31 19:40:52;;;;;;;114.68;47.83;;;;;;;8.64;92.84;100746.69;10544380;28;20047;-63
2023/10/31 19:45:53;;;;;;;136.05;58.65;;;;;;;9.20;92.67;100849.09;10543803;28;20039;-63
2023/10/31 19:50:54;;;;;;;187.48;85.03;;;;;;;9.11;92.93;100845.50;10543640;28;20052;-62
2023/10/31 19:55:55;;;;;;;210.60;92.57;;;;;;;8.92;93.40;100837.66;10543950;28;20032;-63
2023/10/31 20:00:55;;;;;;;210.27;90.85;;;;;;;8.81;94.22;100833.34;10542982;28;20507;-62
2023/10/31 20:05:56;;;;;;;203.30;93.18;;;;;;;8.91;93.68;100838.63;10541622;28;20040;-62
2023/10/31 20:10:57;;;;;;;200.10;88.13;;;;;;;8.71;93.88;100831.72;10541838;28;20181;-62
2023/10/31 20:15:57;;;;;;;199.30;92.50;;;;;;;8.73;93.65;100845.66;10542432;28;20039;-62
2023/10/31 20:20:58;;;;;;;191.45;87.03;;;;;;;8.61;94.63;100835.22;10542330;28;20044;-62
2023/10/31 20:25:59;;;;;;;281.40;88.72;;;;;;;8.59;95.05;100836.34;10542422;28;20043;-62
2023/10/31 20:31:00;;;;;;;398.85;87.00;;;;;;;8.54;96.37;100855.31;10541323;28;20050;-62
2023/10/31 20:36:00;;;;;;;212.13;73.78;;;;;;;8.37;97.91;100834.81;10542065;28;20076;-62
2023/10/31 20:41:01;;;;;;;157.25;63.13;;;;;;;8.33;99.21;100846.69;10540828;28;20462;-62
2023/10/31 20:46:02;;;;;;;117.53;54.13;;;;;;;7.98;99.46;100809.22;10540920;28;20047;-62
2023/10/31 20:51:03;;;;;;;101.55;48.60;;;;;;;7.95;98.94;100821.91;10540561;28;20036;-63
2023/10/31 20:56:05;;;;;;;130.77;43.58;;;;;;;8.06;99.68;100831.50;10539783;28;20047;-62
2023/10/31 21:01:08;;;;;;;133.88;39.47;;;;;;;8.07;99.87;100828.72;10540226;28;20036;-62
2023/10/31 21:06:09;;;;;;;182.55;37.28;;;;;;;7.95;100.00;100803.38;10539820;28;20131;-62
2023/10/31 21:11:09;;;;;;;93.00;25.35;;;;;;;7.81;100.00;100817.88;10539738;28;20122;-62
2023/10/31 21:16:11;;;;;;;62.35;28.40;;;;;;;7.73;100.00;100807.97;10538801;28;20438;-62
2023/10/31 21:21:12;;;;;;;53.47;19.98;;;;;;;7.74;100.00;100817.56;10539254;28;20105;-62
2023/10/31 21:26:13;;;;;;;69.85;17.98;;;;;;;7.48;100.00;100763.56;10539670;28;20096;-62
2023/10/31 21:31:14;;;;;;;38.17;15.90;;;;;;;7.76;100.00;100805.03;10539486;28;20097;-62
2023/10/31 21:36:14;;;;;;;42.35;15.50;;;;;;;7.67;100.00;100792.66;10538929;28;20066;-62
2023/10/31 21:41:15;;;;;;;71.65;16.60;;;;;;;7.15;100.00;100693.41;10538671;28;20458;-62
2023/10/31 21:46:16;;;;;;;57.88;16.05;;;;;;;7.82;100.00;100802.81;10538390;28;20040;-62
2023/10/31 21:51:17;;;;;;;108.32;17.25;;;;;;;7.42;100.00;100735.00;10537995;28;20544;-62
2023/10/31 21:56:17;;;;;;;90.63;17.13;;;;;;;7.93;100.00;100794.75;10538087;28;20484;-63
2023/10/31 22:01:18;;;;;;;209.50;19.08;;;;;;;7.86;100.00;100789.16;10537387;28;20119;-62
2023/10/31 22:06:20;;;;;;;108.47;15.95;;;;;;;7.69;100.00;100771.38;10538874;28;20538;-62
2023/10/31 22:11:20;;;;;;;74.20;16.55;;;;;;;7.71;100.00;100782.63;10538496;28;20618;-62
2023/10/31 22:16:21;;;;;;;68.65;15.40;;;;;;;7.67;100.00;100782.06;10538145;28;20047;-62
2023/10/31 22:21:23;;;;;;;60.92;16.00;;;;;;;7.66;100.00;100776.94;10538414;28;20073;-62
2023/10/31 22:26:24;;;;;;;66.47;17.17;;;;;;;7.64;100.00;100760.38;10537103;28;20541;-62
2023/10/31 22:31:24;;;;;;;65.20;22.17;;;;;;;7.60;100.00;100775.69;10537206;28;20047;-62
2023/10/31 22:36:25;;;;;;;88.80;16.33;;;;;;;7.48;100.00;100760.94;10537612;28;20059;-62
2023/10/31 22:41:26;;;;;;;79.20;15.23;;;;;;;7.51;100.00;100782.63;10537378;28;20164;-62
2023/10/31 22:46:26;;;;;;;70.07;15.63;;;;;;;7.57;100.00;100775.09;10537107;28;20036;-62